createdAt,value
2019-01-30T00:01:13.547Z,7.28
2019-01-30T00:03:40.256Z,7.92
2019-01-30T00:06:06.959Z,8.10
2019-01-30T00:08:34.107Z,7.60
2019-01-30T00:11:00.918Z,8.30
2019-01-30T00:13:27.618Z,7.67
2019-01-30T00:15:56.438Z,8.73
2019-01-30T00:18:23.030Z,7.78
2019-01-30T00:20:49.951Z,8.43
2019-01-30T00:23:16.655Z,8.18
2019-01-30T00:25:43.351Z,8.83
2019-01-30T00:28:10.170Z,8.43
2019-01-30T00:30:36.943Z,8.88
2019-01-30T00:33:03.852Z,7.58
2019-01-30T00:35:30.754Z,8.28
2019-01-30T00:37:58.561Z,8.30
2019-01-30T00:40:26.076Z,8.45
2019-01-30T00:42:53.199Z,8.98
2019-01-30T00:45:20.116Z,8.33
2019-01-30T00:47:46.815Z,8.10
2019-01-30T00:50:13.668Z,8.38
2019-01-30T00:52:40.475Z,8.58
2019-01-30T00:55:07.679Z,8.05
2019-01-30T00:57:34.395Z,8.53
2019-01-30T01:00:01.226Z,8.10
2019-01-30T01:02:28.147Z,8.38
2019-01-30T01:04:54.843Z,8.63
2019-01-30T01:07:21.562Z,8.23
2019-01-30T01:09:48.372Z,8.13
2019-01-30T01:12:15.179Z,7.62
2019-01-30T01:14:41.993Z,7.95
2019-01-30T01:17:08.683Z,8.03
2019-01-30T01:19:35.404Z,8.00
2019-01-30T01:22:02.495Z,7.17
2019-01-30T01:24:29.200Z,8.28
2019-01-30T01:26:55.895Z,7.50
2019-01-30T01:29:22.603Z,7.60
2019-01-30T01:31:49.319Z,8.10
2019-01-30T01:34:16.027Z,7.65
2019-01-30T01:36:42.723Z,7.70
2019-01-30T01:39:09.439Z,8.00
2019-01-30T01:41:36.151Z,7.25
2019-01-30T01:44:03.456Z,7.45
2019-01-30T01:46:30.280Z,7.50
2019-01-30T01:48:57.186Z,7.78
2019-01-30T01:51:23.923Z,7.10
2019-01-30T01:53:50.639Z,7.78
2019-01-30T01:56:17.351Z,7.37
2019-01-30T01:58:44.147Z,7.22
2019-01-30T02:01:10.883Z,7.67
2019-01-30T02:03:37.612Z,7.25
2019-01-30T02:06:04.520Z,7.90
2019-01-30T02:08:31.222Z,7.62
2019-01-30T02:10:58.035Z,8.00
2019-01-30T02:13:24.748Z,7.87
2019-01-30T02:15:51.447Z,7.97
2019-01-30T02:18:18.155Z,7.90
2019-01-30T02:20:44.867Z,8.45
2019-01-30T02:23:11.786Z,8.38
2019-01-30T02:25:38.479Z,9.50
2019-01-30T02:28:05.388Z,9.18
2019-01-30T02:30:32.188Z,9.10
2019-01-30T02:32:59.009Z,9.40
2019-01-30T02:35:26.507Z,9.70
2019-01-30T02:37:53.375Z,9.83
2019-01-30T02:40:22.691Z,10.08
2019-01-30T02:42:49.499Z,10.85
2019-01-30T02:45:18.334Z,11.53
2019-01-30T02:47:45.251Z,11.83
2019-01-30T02:50:14.287Z,11.28
2019-01-30T02:52:41.120Z,11.22
2019-01-30T02:55:09.269Z,11.78
2019-01-30T02:57:36.026Z,11.70
2019-01-30T03:00:04.651Z,12.00
2019-01-30T03:02:31.564Z,12.28
2019-01-30T03:04:58.272Z,11.28
2019-01-30T03:07:25.183Z,11.97
2019-01-30T03:09:51.891Z,11.97
2019-01-30T03:12:18.600Z,12.53
2019-01-30T03:14:45.307Z,12.60
2019-01-30T03:17:12.119Z,12.88
2019-01-30T03:19:38.828Z,12.80
2019-01-30T03:22:05.643Z,12.95
2019-01-30T03:24:32.339Z,13.28
2019-01-30T03:26:59.057Z,13.60
2019-01-30T03:29:25.739Z,13.72
2019-01-30T03:31:52.455Z,13.22
2019-01-30T03:34:19.167Z,13.45
2019-01-30T03:36:45.868Z,13.45
2019-01-30T03:39:13.024Z,14.20
2019-01-30T03:41:39.720Z,14.45
2019-01-30T03:44:06.709Z,13.80
2019-01-30T03:46:33.412Z,13.60
2019-01-30T03:49:00.119Z,13.98
2019-01-30T03:51:26.929Z,14.43
2019-01-30T03:53:53.882Z,14.95
2019-01-30T03:56:21.296Z,13.25
2019-01-30T03:58:48.000Z,14.13
2019-01-30T04:01:26.169Z,14.35
2019-01-30T04:03:43.903Z,15.55
2019-01-30T04:06:10.611Z,15.55
2019-01-30T04:08:37.319Z,15.70
2019-01-30T04:11:04.139Z,13.08
2019-01-30T04:13:30.840Z,15.45
2019-01-30T04:15:57.564Z,15.40
2019-01-30T04:18:24.357Z,14.93
2019-01-30T04:20:51.160Z,15.18
2019-01-30T04:23:17.886Z,14.50
2019-01-30T04:25:44.588Z,14.53
2019-01-30T04:28:11.391Z,14.55
2019-01-30T04:30:38.087Z,15.68
2019-01-30T04:33:04.795Z,14.50
2019-01-30T04:35:31.502Z,13.30
2019-01-30T04:37:58.197Z,14.55
2019-01-30T04:40:25.328Z,14.70
2019-01-30T04:42:52.131Z,13.88
2019-01-30T04:45:21.186Z,13.98
2019-01-30T04:47:47.965Z,14.38
2019-01-30T04:50:15.032Z,14.15
2019-01-30T04:52:41.727Z,14.70
2019-01-30T04:55:09.059Z,13.45
2019-01-30T04:57:35.772Z,14.43
2019-01-30T05:00:03.905Z,14.43
2019-01-30T05:02:30.607Z,15.25
2019-01-30T05:04:57.310Z,14.47
2019-01-30T05:07:24.127Z,14.58
2019-01-30T05:09:51.335Z,15.35
2019-01-30T05:12:18.044Z,13.70
2019-01-30T05:14:45.232Z,13.75
2019-01-30T05:17:11.945Z,14.33
2019-01-30T05:19:38.654Z,15.55
2019-01-30T05:22:05.363Z,13.45
2019-01-30T05:24:32.115Z,14.23
2019-01-30T05:26:58.903Z,14.05
2019-01-30T05:29:25.614Z,13.08
2019-01-30T05:32:00.970Z,13.05
2019-01-30T05:34:20.931Z,14.25
2019-01-30T05:36:47.645Z,14.30
2019-01-30T05:39:14.343Z,13.95
2019-01-30T05:41:41.049Z,14.50
2019-01-30T05:44:07.751Z,13.50
2019-01-30T05:46:34.454Z,13.55
2019-01-30T05:49:01.258Z,12.93
2019-01-30T05:51:27.967Z,13.10
2019-01-30T05:53:54.684Z,13.45
2019-01-30T05:56:21.408Z,12.73
2019-01-30T05:58:48.111Z,13.78
2019-01-30T06:01:15.208Z,13.50
2019-01-30T06:03:41.915Z,13.40
2019-01-30T06:06:08.615Z,12.25
2019-01-30T06:08:35.314Z,14.07
2019-01-30T06:11:02.023Z,12.98
2019-01-30T06:13:28.739Z,12.65
2019-01-30T06:15:55.451Z,13.43
2019-01-30T06:18:22.159Z,12.65
2019-01-30T06:20:48.863Z,11.75
2019-01-30T06:23:15.559Z,12.35
2019-01-30T06:25:42.376Z,12.75
2019-01-30T06:28:09.071Z,13.10
2019-01-30T06:30:35.866Z,13.93
2019-01-30T06:33:02.776Z,15.20
2019-01-30T06:35:29.480Z,13.50
2019-01-30T06:37:56.308Z,14.07
2019-01-30T06:40:28.611Z,13.08
2019-01-30T06:42:55.515Z,12.98
2019-01-30T06:45:22.663Z,13.80
2019-01-30T06:47:49.580Z,12.63
2019-01-30T06:50:16.501Z,13.25
2019-01-30T06:52:43.198Z,13.80
2019-01-30T06:55:10.015Z,13.90
2019-01-30T06:57:36.909Z,13.50
2019-01-30T07:00:08.428Z,13.98
2019-01-30T07:02:35.139Z,14.03
2019-01-30T07:05:01.847Z,13.78
2019-01-30T07:07:28.563Z,13.88
2019-01-30T07:09:55.288Z,13.15
2019-01-30T07:12:23.051Z,12.37
2019-01-30T07:14:49.743Z,13.18
2019-01-30T07:17:16.471Z,12.70
2019-01-30T07:19:43.179Z,12.98
2019-01-30T07:22:10.091Z,13.68
2019-01-30T07:24:36.899Z,13.45
2019-01-30T07:27:03.791Z,14.35
2019-01-30T07:29:30.595Z,13.65
2019-01-30T07:31:57.506Z,12.78
2019-01-30T07:34:24.215Z,13.10
2019-01-30T07:36:50.916Z,14.00
2019-01-30T07:39:17.863Z,13.35
2019-01-30T07:41:44.651Z,13.13
2019-01-30T07:44:11.363Z,13.85
2019-01-30T07:46:38.147Z,13.83
2019-01-30T07:49:04.983Z,14.15
2019-01-30T07:51:31.686Z,12.82
2019-01-30T07:53:58.383Z,13.78
2019-01-30T07:56:25.199Z,14.10
2019-01-30T07:58:51.914Z,13.40
2019-01-30T08:01:18.731Z,13.30
2019-01-30T08:03:45.444Z,13.22
2019-01-30T08:06:12.360Z,13.18
2019-01-30T08:08:39.059Z,13.10
2019-01-30T08:11:07.438Z,13.10
2019-01-30T08:13:34.383Z,13.65
2019-01-30T08:16:01.089Z,13.72
2019-01-30T08:18:28.063Z,12.73
2019-01-30T08:20:54.759Z,12.93
2019-01-30T08:23:21.483Z,12.23
2019-01-30T08:25:48.777Z,12.70
2019-01-30T08:28:15.977Z,13.15
2019-01-30T08:30:43.338Z,13.53
2019-01-30T08:33:10.213Z,13.32
2019-01-30T08:35:37.110Z,12.70
2019-01-30T08:38:04.035Z,12.70
2019-01-30T08:40:31.318Z,12.53
2019-01-30T08:42:58.740Z,12.18
2019-01-30T08:45:27.430Z,13.30
2019-01-30T08:47:57.088Z,13.30
2019-01-30T08:50:25.007Z,12.85
2019-01-30T08:52:51.908Z,12.30
2019-01-30T08:55:18.809Z,12.60
2019-01-30T08:57:45.619Z,12.23
2019-01-30T09:00:15.187Z,12.30
2019-01-30T09:02:41.888Z,11.57
2019-01-30T09:05:08.830Z,12.05
2019-01-30T09:07:44.004Z,11.80
2019-01-30T09:10:07.351Z,12.70
2019-01-30T09:12:34.057Z,13.20
2019-01-30T09:15:00.763Z,12.35
2019-01-30T09:17:27.559Z,12.85
2019-01-30T09:19:54.369Z,13.43
2019-01-30T09:22:21.164Z,12.65
2019-01-30T09:24:47.880Z,12.82
2019-01-30T09:27:14.583Z,12.20
2019-01-30T09:29:41.292Z,12.28
2019-01-30T09:32:07.996Z,13.15
2019-01-30T09:34:34.712Z,12.53
2019-01-30T09:37:01.416Z,12.35
2019-01-30T09:39:28.112Z,11.68
2019-01-30T09:41:54.810Z,12.58
2019-01-30T09:44:21.545Z,12.70
2019-01-30T09:46:48.431Z,12.53
2019-01-30T09:49:15.148Z,12.55
2019-01-30T09:51:41.847Z,11.85
2019-01-30T09:54:08.661Z,11.83
2019-01-30T09:56:35.540Z,11.63
2019-01-30T09:59:02.486Z,11.28
2019-01-30T10:01:29.295Z,11.83
2019-01-30T10:03:56.009Z,11.22
2019-01-30T10:06:22.717Z,12.50
2019-01-30T10:08:49.915Z,11.93
2019-01-30T10:11:16.615Z,11.75
2019-01-30T10:13:43.341Z,12.07
2019-01-30T10:16:10.063Z,12.28
2019-01-30T10:18:36.768Z,11.85
2019-01-30T10:21:03.774Z,11.68
2019-01-30T10:23:30.475Z,11.65
2019-01-30T10:25:57.187Z,12.58
2019-01-30T10:28:23.890Z,11.70
2019-01-30T10:30:50.720Z,12.28
2019-01-30T10:33:17.591Z,12.18
2019-01-30T10:35:44.764Z,11.63
2019-01-30T10:38:11.720Z,12.13
2019-01-30T10:40:38.674Z,11.57
2019-01-30T10:43:06.041Z,12.10
2019-01-30T10:45:32.890Z,11.95
2019-01-30T10:47:59.790Z,12.23
2019-01-30T10:50:27.879Z,12.23
2019-01-30T10:52:54.620Z,11.97
2019-01-30T10:55:23.901Z,12.20
2019-01-30T10:57:53.540Z,11.73
2019-01-30T11:00:23.095Z,12.47
2019-01-30T11:02:49.840Z,12.40
2019-01-30T11:05:16.755Z,12.65
2019-01-30T11:07:43.593Z,12.33
2019-01-30T11:10:11.365Z,12.80
2019-01-30T11:12:38.176Z,12.53
2019-01-30T11:15:06.887Z,12.23
2019-01-30T11:17:33.602Z,12.70
2019-01-30T11:20:00.856Z,12.85
2019-01-30T11:22:27.802Z,12.70
2019-01-30T11:24:55.825Z,12.68
2019-01-30T11:27:23.430Z,13.58
2019-01-30T11:29:50.139Z,13.25
2019-01-30T11:32:16.842Z,12.00
2019-01-30T11:34:43.551Z,13.38
2019-01-30T11:37:10.271Z,13.60
2019-01-30T11:39:36.975Z,13.13
2019-01-30T11:42:03.903Z,13.45
2019-01-30T11:44:30.628Z,13.32
2019-01-30T11:46:57.338Z,13.68
2019-01-30T11:49:24.063Z,13.88
2019-01-30T11:51:50.784Z,14.00
2019-01-30T11:54:17.499Z,13.18
2019-01-30T11:56:44.300Z,14.30
2019-01-30T11:59:11.019Z,14.10
2019-01-30T12:01:37.823Z,13.15
2019-01-30T12:04:04.531Z,13.58
2019-01-30T12:06:31.239Z,14.45
2019-01-30T12:08:57.955Z,14.07
2019-01-30T12:11:24.659Z,13.45
2019-01-30T12:13:51.375Z,13.85
2019-01-30T12:16:18.184Z,14.23
2019-01-30T12:18:44.899Z,13.35
2019-01-30T12:21:11.612Z,13.80
2019-01-30T12:23:38.435Z,13.50
2019-01-30T12:26:05.251Z,14.18
2019-01-30T12:28:31.979Z,14.38
2019-01-30T12:30:59.025Z,15.13
2019-01-30T12:33:25.728Z,15.68
2019-01-30T12:35:52.431Z,15.50
2019-01-30T12:38:19.251Z,16.23
2019-01-30T12:40:46.075Z,17.25
2019-01-30T12:43:12.867Z,18.90
2019-01-30T12:45:39.775Z,20.43
2019-01-30T12:48:06.752Z,19.70
2019-01-30T12:50:34.027Z,19.70
2019-01-30T12:53:00.739Z,20.12
2019-01-30T12:55:29.434Z,21.50
2019-01-30T12:57:56.510Z,20.97
2019-01-30T13:00:26.451Z,22.65
2019-01-30T13:02:53.558Z,21.65
2019-01-30T13:05:23.271Z,22.00
2019-01-30T13:07:49.985Z,22.40
2019-01-30T13:10:16.919Z,22.98
2019-01-30T13:12:43.633Z,22.32
2019-01-30T13:15:12.535Z,21.52
2019-01-30T13:17:39.589Z,21.75
2019-01-30T13:20:15.232Z,21.65
2019-01-30T13:22:42.055Z,22.30
2019-01-30T13:25:09.000Z,22.98
2019-01-30T13:27:35.911Z,22.82
2019-01-30T13:30:07.042Z,22.82
2019-01-30T13:32:33.831Z,24.10
2019-01-30T13:35:00.787Z,23.75
2019-01-30T13:37:27.745Z,24.63
2019-01-30T13:39:54.468Z,22.85
2019-01-30T13:42:21.179Z,22.70
2019-01-30T13:44:47.983Z,21.65
2019-01-30T13:47:14.911Z,22.37
2019-01-30T13:49:41.652Z,24.60
2019-01-30T13:52:08.535Z,24.85
2019-01-30T13:54:35.347Z,25.12
2019-01-30T13:57:02.212Z,26.27
2019-01-30T13:59:29.079Z,26.97
2019-01-30T14:01:55.787Z,26.48
2019-01-30T14:04:22.525Z,25.40
2019-01-30T14:06:49.215Z,26.77
2019-01-30T14:09:16.122Z,26.52
2019-01-30T14:11:42.849Z,25.15
2019-01-30T14:14:09.652Z,26.62
2019-01-30T14:16:36.667Z,28.57
2019-01-30T14:19:03.996Z,27.45
2019-01-30T14:21:30.948Z,27.50
2019-01-30T14:23:57.648Z,29.92
2019-01-30T14:26:24.463Z,28.35
2019-01-30T14:28:51.300Z,27.67
2019-01-30T14:31:18.051Z,29.67
2019-01-30T14:33:45.022Z,30.00
2019-01-30T14:36:12.259Z,29.25
2019-01-30T14:38:38.963Z,30.27
2019-01-30T14:41:05.776Z,29.67
2019-01-30T14:43:32.495Z,29.80
2019-01-30T14:45:59.309Z,29.87
2019-01-30T14:48:26.075Z,29.77
2019-01-30T14:50:52.786Z,29.87
2019-01-30T14:53:19.960Z,31.15
2019-01-30T14:55:46.957Z,30.62
2019-01-30T14:58:13.764Z,29.55
2019-01-30T15:00:40.827Z,30.92
2019-01-30T15:03:07.566Z,30.65
2019-01-30T15:05:34.399Z,31.70
2019-01-30T15:08:01.447Z,29.82
2019-01-30T15:10:28.797Z,30.85
2019-01-30T15:12:55.612Z,32.42
2019-01-30T15:15:24.351Z,30.45
2019-01-30T15:17:51.155Z,32.63
2019-01-30T15:20:20.058Z,33.50
2019-01-30T15:22:46.868Z,31.95
2019-01-30T15:25:15.471Z,33.00
2019-01-30T15:27:42.186Z,34.48
2019-01-30T15:32:41.368Z,35.38
2019-01-30T15:35:08.759Z,31.52
2019-01-30T15:37:35.575Z,35.08
2019-01-30T15:40:03.255Z,32.73
2019-01-30T15:42:29.951Z,32.95
2019-01-30T15:44:56.662Z,35.00
2019-01-30T15:47:23.383Z,31.95
2019-01-30T15:49:50.106Z,32.73
2019-01-30T15:52:16.819Z,36.08
2019-01-30T15:54:43.540Z,30.40
2019-01-30T15:57:10.240Z,32.75
2019-01-30T15:59:37.059Z,30.60
2019-01-30T16:02:04.232Z,29.57
2019-01-30T16:04:30.947Z,33.65
2019-01-30T16:06:57.659Z,32.10
2019-01-30T16:09:24.379Z,30.97
2019-01-30T16:11:51.249Z,27.05
2019-01-30T16:14:18.008Z,29.55
2019-01-30T16:16:45.012Z,29.32
2019-01-30T16:19:12.147Z,33.30
2019-01-30T16:21:38.861Z,30.88
2019-01-30T16:24:05.583Z,30.05
2019-01-30T16:26:32.291Z,31.42
2019-01-30T16:28:59.003Z,27.17
2019-01-30T16:31:25.703Z,30.35
2019-01-30T16:33:52.650Z,29.57
2019-01-30T16:36:19.359Z,28.95
2019-01-30T16:38:46.080Z,31.80
2019-01-30T16:41:12.799Z,30.08
2019-01-30T16:43:39.625Z,31.50
2019-01-30T16:46:07.558Z,29.72
2019-01-30T16:48:34.372Z,31.62
2019-01-30T16:51:01.283Z,31.85
2019-01-30T16:53:28.083Z,29.23
2019-01-30T16:55:54.795Z,30.05
2019-01-30T16:58:21.607Z,29.92
2019-01-30T17:00:48.305Z,30.92
2019-01-30T17:03:15.324Z,32.03
2019-01-30T17:05:42.032Z,33.10
2019-01-30T17:08:08.968Z,30.75
2019-01-30T17:10:35.767Z,29.27
2019-01-30T17:13:03.527Z,33.18
2019-01-30T17:15:31.183Z,31.23
2019-01-30T17:17:57.987Z,29.42
2019-01-30T17:20:44.451Z,28.87
2019-01-30T17:23:12.155Z,30.10
2019-01-30T17:25:39.052Z,29.40
2019-01-30T17:28:05.950Z,29.90
2019-01-30T17:30:54.351Z,27.80
2019-01-30T17:33:21.235Z,28.62
2019-01-30T17:35:48.619Z,29.48
2019-01-30T17:38:15.523Z,30.97
2019-01-30T17:40:43.472Z,29.20
2019-01-30T17:43:10.367Z,29.50
2019-01-30T17:45:37.185Z,31.00
2019-01-30T17:48:05.591Z,28.50
2019-01-30T17:50:32.295Z,28.73
2019-01-30T17:52:59.084Z,28.52
2019-01-30T17:55:26.399Z,26.57
2019-01-30T17:57:53.827Z,27.67
2019-01-30T18:00:27.847Z,25.10
2019-01-30T18:02:54.672Z,25.85
2019-01-30T18:05:21.476Z,24.82
2019-01-30T18:07:48.179Z,24.98
2019-01-30T18:10:17.789Z,22.70
2019-01-30T18:12:43.830Z,24.43
2019-01-30T18:15:10.848Z,22.75
2019-01-30T18:17:37.559Z,24.05
2019-01-30T18:20:08.014Z,22.80
2019-01-30T18:22:34.356Z,22.22
2019-01-30T18:25:01.067Z,21.77
2019-01-30T18:27:27.786Z,20.70
2019-01-30T18:29:54.479Z,20.50
2019-01-30T18:32:21.379Z,21.02
2019-01-30T18:34:48.071Z,20.82
2019-01-30T18:37:14.797Z,20.45
2019-01-30T18:39:41.507Z,20.08
2019-01-30T18:42:08.193Z,19.00
2019-01-30T18:44:34.894Z,19.15
2019-01-30T18:47:01.593Z,19.52
2019-01-30T18:49:28.406Z,19.10
2019-01-30T18:51:55.108Z,19.75
2019-01-30T18:54:21.803Z,19.35
2019-01-30T18:56:48.513Z,20.48
2019-01-30T18:59:15.216Z,20.32
2019-01-30T19:01:42.311Z,20.02
2019-01-30T19:04:09.004Z,20.02
2019-01-30T19:06:35.799Z,19.75
2019-01-30T19:09:07.093Z,18.48
2019-01-30T19:11:33.896Z,18.27
2019-01-30T19:14:00.592Z,17.17
2019-01-30T19:16:27.387Z,15.20
2019-01-30T19:18:54.079Z,16.07
2019-01-30T19:21:20.939Z,15.03
2019-01-30T19:23:47.636Z,14.07
2019-01-30T19:26:14.343Z,14.78
2019-01-30T19:28:41.052Z,13.05
2019-01-30T19:31:07.765Z,14.35
2019-01-30T19:33:34.471Z,12.78
2019-01-30T19:36:01.607Z,12.30
2019-01-30T19:38:28.508Z,12.10
2019-01-30T19:40:55.207Z,11.15
2019-01-30T19:43:21.924Z,11.05
2019-01-30T19:45:48.615Z,12.55
2019-01-30T19:48:15.423Z,12.78
2019-01-30T19:50:42.127Z,12.78
2019-01-30T19:53:08.935Z,12.73
2019-01-30T19:55:35.779Z,15.50
2019-01-30T19:58:03.295Z,18.20
2019-01-30T20:00:33.803Z,19.75
2019-01-30T20:03:01.322Z,20.25
2019-01-30T20:05:28.255Z,20.43
2019-01-30T20:07:55.083Z,20.68
2019-01-30T20:10:32.491Z,23.38
2019-01-30T20:12:59.403Z,22.40
2019-01-30T20:15:27.271Z,21.90
2019-01-30T20:17:54.184Z,24.02
2019-01-30T20:20:21.330Z,22.95
2019-01-30T20:22:48.407Z,22.07
2019-01-30T20:25:17.955Z,22.48
2019-01-30T20:27:45.479Z,20.40
2019-01-30T20:30:16.111Z,21.93
2019-01-30T20:32:43.010Z,20.80
2019-01-30T20:35:10.031Z,20.92
2019-01-30T20:37:37.713Z,19.82
2019-01-30T20:40:08.155Z,19.73
2019-01-30T20:42:35.319Z,18.27
2019-01-30T20:45:02.135Z,18.50
2019-01-30T20:47:29.131Z,18.20
2019-01-30T20:49:55.845Z,18.23
2019-01-30T20:52:22.555Z,17.17
2019-01-30T20:54:59.483Z,17.17
2019-01-30T20:57:17.875Z,15.90
2019-01-30T20:59:44.595Z,18.10
2019-01-30T21:02:11.304Z,17.67
2019-01-30T21:04:38.464Z,17.17
2019-01-30T21:07:05.170Z,16.80
2019-01-30T21:09:31.884Z,15.60
2019-01-30T21:11:58.597Z,16.73
2019-01-30T21:14:25.299Z,15.80
2019-01-30T21:16:52.119Z,15.90
2019-01-30T21:19:21.807Z,16.70
2019-01-30T21:21:49.001Z,14.63
2019-01-30T21:24:15.711Z,16.75
2019-01-30T21:26:42.514Z,14.70
2019-01-30T21:29:09.223Z,16.23
2019-01-30T21:31:35.915Z,17.27
2019-01-30T21:34:02.715Z,16.93
2019-01-30T21:36:29.415Z,17.27
2019-01-30T21:38:56.139Z,17.27
2019-01-30T21:41:22.848Z,17.00
2019-01-30T21:43:49.643Z,17.77
2019-01-30T21:46:16.354Z,16.90
2019-01-30T21:48:43.076Z,17.65
2019-01-30T21:51:09.784Z,17.67
2019-01-30T21:53:36.588Z,17.30
2019-01-30T21:56:03.494Z,18.32
2019-01-30T21:58:30.194Z,20.20
2019-01-30T22:00:56.919Z,19.00
2019-01-30T22:03:23.732Z,18.30
2019-01-30T22:05:50.971Z,18.23
2019-01-30T22:08:17.671Z,18.55
2019-01-30T22:10:44.385Z,19.02
2019-01-30T22:13:11.097Z,20.00
2019-01-30T22:15:37.903Z,19.57
2019-01-30T22:18:05.120Z,19.48
2019-01-30T22:20:31.822Z,19.42
2019-01-30T22:22:58.622Z,19.27
2019-01-30T22:25:25.748Z,19.20
2019-01-30T22:27:52.458Z,19.27
2019-01-30T22:30:24.247Z,20.62
2019-01-30T22:32:51.351Z,21.35
2019-01-30T22:35:18.057Z,21.85
2019-01-30T22:37:44.864Z,22.75
2019-01-30T22:40:11.902Z,23.25
2019-01-30T22:42:38.808Z,23.20
2019-01-30T22:45:07.151Z,24.30
2019-01-30T22:47:33.955Z,23.87
2019-01-30T22:50:00.663Z,27.13
2019-01-30T22:52:27.375Z,24.40
2019-01-30T22:54:54.079Z,25.82
2019-01-30T22:57:21.215Z,26.40
2019-01-30T22:59:47.907Z,27.37
2019-01-30T23:02:14.811Z,27.05
2019-01-30T23:05:08.923Z,25.10
2019-01-30T23:08:01.899Z,27.45
2019-01-30T23:11:19.907Z,30.40
2019-01-30T23:13:58.226Z,27.65
2019-01-30T23:16:52.403Z,26.87
2019-01-30T23:19:27.959Z,26.12
2019-01-30T23:22:48.636Z,29.82
2019-01-30T23:26:09.348Z,24.80
2019-01-30T23:29:19.649Z,25.92
2019-01-30T23:32:14.391Z,24.80
2019-01-30T23:35:16.549Z,25.60
2019-01-30T23:38:21.523Z,26.15
2019-01-30T23:41:05.072Z,25.20
2019-01-30T23:43:59.259Z,25.57
2019-01-30T23:46:36.903Z,25.62
2019-01-30T23:49:23.855Z,25.30
2019-01-30T23:52:17.347Z,28.05
2019-01-30T23:55:15.600Z,27.45
2019-01-30T23:58:07.136Z,27.35
